Hovedside
METAR-TAF:

METAR-TAF

Lufthavner :

Kittilä lufthavn

Kittilä, Finland

breddegrad: 67-42N, lengdegrad: 024-51E, høyde over havet: 196 m

Gjeldene værobservasjon

Denne rapporten ble laget for 16 minutter siden, klokken 04:20 UTC
Vind 1 kt fra skiftende retning
Temperatur -7°C
Luftfuktighet 93%
Trykk 1029 hPa
Sikt: 1100 m
tåkebanker

METAR: EFKT 190420Z AUTO VRB01KT 1100 R34/1400U BCFG VV002 M07/M08 Q1029

Tid: 06:36 (04:36 UTC)

Varsel

Denne rapporten ble laget for 2 timer og 8 minutter siden, klokken 02:28 UTC
Varsel gyldig fra 19. klokken 03 UTC til 19. klokken 12 UTC
Vind 2 kt fra Sørøst
Sikt: 0800 m
i en høyde av 200 ft
underkjølt tåke
Midlertidig
fra 19. klokken 03 UTC til 19. klokken 08 UTC
Sikt: 0600 m
i en høyde av 100 ft
Midlertidig
fra 19. klokken 08 UTC til 19. klokken 12 UTC
Sikt: 4700 m
Brutte skyer i en høyde av 400 ft
(lett) frysende, duskregn

TAF: EFKT 190228Z 1903/1912 14002KT 0800 FZFG VV002 TEMPO 1903/1908 0600 VV001 TEMPO 1908/1912 4700 -FZDZ BKN004

Værobservasjoner og værvarsel for over 4000 flyplasser (METAR- og TAF-rapporter).

Tilgjengelige stasjoner er representert av de røde og gule prikkene på kartet.

Hold musepekeren over prikken for å se navnet på stasjonen.

Klikk så for å se værobservasjoner og -varsler.

For å forandre kartet kan du klikke på den grønne knappen med svart kryss for å zoome inn, på den grønne knappen med strek for å zoome ut, eller på de grønne pilene for å se tilstøtende kart.


METAR-TAF: